Airfield :
LOGIN :

Register | Disclaimer

   EN    FR    IT 

 










Legend :    VFR   Marginal VFR   IFR   Intensive IFR   Very Intensive IFR
Visi :
Ceiling :
>= 8 km
>= 3000ft
5 to 8 km
1000 to 3000 ft
1500m to 5 km
500 to 1000 ft
800 to 1500m
200 to 500 ft
< 800m
< 200 ft
Symbols :   Thunderstorms  Fog  Heavy snow  Heavy precipitations  Wind > 20 kt
SIGMETs :     Misc.  Thunderstorms  Icing  Turbulence  Mountain Waves  Volcanic Ashes






- Airport Elevation : 299 ft
- IATA code : EDM


LFRI - La Roche Sur Yon - Les Ajoncs

CURRENT METAR :
  • 200000Z AUTO 03003KT 9999 -RA NSC 12/11 Q1004

EXPIRED METARs :
  • 192330Z AUTO 05003KT 9999 -RA NSC 12/11 Q1004
  • 192300Z AUTO VRB02KT 9999 -RA NSC 12/11 Q1005
  • 192230Z AUTO 01003KT 9999 -RA FEW015 SCT045 BKN052 12/11 Q1005
  • 192200Z AUTO 35002KT 9999 -DZ ///TCU 12/11 Q1005
  • 192130Z AUTO 36004KT CAVOK 12/11 Q1005

TAF TAF LFRI
Valid from the 19 at 18:00 until the 20 at 18:00 UTC


191700Z 1918/2018 VRB03KT 9999 -RA BKN020 BKN050
BECMG 1918/1920 5000
TEMPO 2006/2018 2000 RA OVC002
BECMG 2008/2010 01010KT



MET'MAP, your aeronautical weather chart ! - Copyright ORBIFLY December 2007 - Disclaimer

ORBIFLY MET'MAP TEAM :

Programming & Development : Alexandra Zaïnal
Concept & Development : Baudouin d'Aumeries
Co-Development & Prog : Marc-Olivier Méhu
Technical & hardware support : Manuel Goepfert

Contact : metmap@orbifly.com




SOURCES & CREDITS :

   NOAA